createdAt,value
2022-11-21T00:01:25.607Z,8.01
2022-11-21T00:03:53.695Z,8.04
2022-11-21T00:06:23.037Z,8.03
2022-11-21T00:08:50.869Z,8.01
2022-11-21T00:11:18.371Z,8.00
2022-11-21T00:13:45.969Z,7.97
2022-11-21T00:16:16.286Z,7.90
2022-11-21T00:18:44.596Z,7.83
2022-11-21T00:21:15.645Z,7.77
2022-11-21T00:23:44.717Z,7.74
2022-11-21T00:26:14.220Z,7.73
2022-11-21T00:28:42.225Z,7.72
2022-11-21T00:31:18.991Z,7.73
2022-11-21T00:33:46.488Z,7.75
2022-11-21T00:36:14.110Z,7.76
2022-11-21T00:38:41.613Z,7.71
2022-11-21T00:41:09.180Z,7.67
2022-11-21T00:43:37.304Z,7.64
2022-11-21T00:46:05.448Z,7.64
2022-11-21T00:48:33.044Z,7.64
2022-11-21T00:51:01.185Z,7.66
2022-11-21T00:53:29.656Z,7.70
2022-11-21T00:55:57.867Z,7.74
2022-11-21T00:58:26.149Z,7.82
2022-11-21T01:01:07.575Z,7.90
2022-11-21T01:03:35.639Z,8.00
2022-11-21T01:06:13.056Z,8.09
2022-11-21T01:08:43.602Z,8.15
2022-11-21T01:11:19.003Z,8.21
2022-11-21T01:13:48.210Z,8.24
2022-11-21T01:16:19.992Z,8.28
2022-11-21T01:18:48.533Z,8.33
2022-11-21T01:21:29.266Z,8.33
2022-11-21T01:24:00.267Z,8.33
2022-11-21T01:26:30.939Z,8.30
2022-11-21T01:28:59.263Z,8.28
2022-11-21T01:31:29.551Z,8.26
2022-11-21T01:33:59.545Z,8.24
2022-11-21T01:36:31.119Z,8.24
2022-11-21T01:39:03.042Z,8.22
2022-11-21T01:41:35.289Z,8.20
2022-11-21T01:44:22.775Z,8.18
2022-11-21T01:46:52.065Z,8.16
2022-11-21T01:49:26.883Z,8.13
2022-11-21T01:52:18.045Z,8.11
2022-11-21T01:55:03.217Z,8.08
2022-11-21T01:57:47.680Z,8.08
2022-11-21T02:00:28.181Z,8.11
2022-11-21T02:03:00.335Z,8.16
2022-11-21T02:05:31.385Z,8.22
2022-11-21T02:08:03.760Z,8.21
2022-11-21T02:10:33.817Z,8.22
2022-11-21T02:13:02.169Z,8.23
2022-11-21T02:15:30.897Z,8.24
2022-11-21T02:17:58.333Z,8.26
2022-11-21T02:20:29.084Z,8.24
2022-11-21T02:23:29.374Z,8.24
2022-11-21T02:25:57.176Z,8.18
2022-11-21T02:28:26.537Z,8.13
2022-11-21T02:30:54.350Z,8.07
2022-11-21T02:33:21.917Z,7.97
2022-11-21T02:36:01.656Z,7.87
2022-11-21T02:38:37.192Z,7.80
2022-11-21T02:41:16.611Z,7.69
2022-11-21T02:43:50.321Z,7.63
2022-11-21T02:46:18.832Z,7.61
2022-11-21T02:48:48.848Z,7.60
2022-11-21T02:51:16.773Z,7.58
2022-11-21T02:53:45.777Z,7.62
2022-11-21T02:56:13.432Z,7.66
2022-11-21T02:58:41.696Z,7.75
2022-11-21T03:01:09.216Z,7.85
2022-11-21T03:03:37.416Z,7.91
2022-11-21T03:06:06.132Z,7.95
2022-11-21T03:08:34.000Z,8.02
2022-11-21T03:11:01.349Z,8.07
2022-11-21T03:13:28.919Z,8.09
2022-11-21T03:15:56.385Z,8.13
2022-11-21T03:18:23.847Z,8.14
2022-11-21T03:20:52.188Z,8.15
2022-11-21T03:23:19.509Z,8.18
2022-11-21T03:25:46.682Z,8.20
2022-11-21T03:28:14.233Z,8.24
2022-11-21T03:30:41.710Z,8.25
2022-11-21T03:33:10.453Z,8.20
2022-11-21T03:35:38.198Z,8.18
2022-11-21T03:38:05.732Z,8.15
2022-11-21T03:40:33.414Z,8.06
2022-11-21T03:43:07.358Z,7.99
2022-11-21T03:45:35.228Z,7.92
2022-11-21T03:48:02.930Z,7.89
2022-11-21T03:50:30.627Z,7.84
2022-11-21T03:52:58.349Z,7.85
2022-11-21T03:55:25.829Z,7.81
2022-11-21T03:57:53.397Z,7.76
2022-11-21T04:00:22.156Z,7.77
2022-11-21T04:02:49.634Z,7.84
2022-11-21T04:05:17.451Z,7.91
2022-11-21T04:07:46.035Z,7.89
2022-11-21T04:10:14.706Z,7.90
2022-11-21T04:12:42.237Z,7.88
2022-11-21T04:15:13.688Z,7.86
2022-11-21T04:17:39.237Z,7.89
2022-11-21T04:20:08.434Z,7.82
2022-11-21T04:22:35.702Z,7.83
2022-11-21T04:25:03.829Z,7.86
2022-11-21T04:27:31.344Z,7.88
2022-11-21T04:29:58.887Z,7.95
2022-11-21T04:32:28.521Z,8.00
2022-11-21T04:34:56.074Z,8.01
2022-11-21T04:37:24.024Z,8.03
2022-11-21T04:39:51.499Z,8.05
2022-11-21T04:42:18.947Z,8.01
2022-11-21T04:44:46.263Z,7.94
2022-11-21T04:47:13.704Z,7.88
2022-11-21T04:49:41.400Z,7.84
2022-11-21T04:52:08.954Z,7.82
2022-11-21T04:54:36.852Z,7.79
2022-11-21T04:57:04.488Z,7.78
2022-11-21T04:59:32.015Z,7.77
2022-11-21T05:01:59.718Z,7.78
2022-11-21T05:04:27.527Z,7.81
2022-11-21T05:06:55.340Z,7.83
2022-11-21T05:09:22.716Z,7.84
2022-11-21T05:12:08.708Z,7.86
2022-11-21T05:14:36.396Z,7.88
2022-11-21T05:17:06.912Z,7.89
2022-11-21T05:19:34.649Z,7.94
2022-11-21T05:22:02.143Z,8.02
2022-11-21T05:24:29.773Z,8.06
2022-11-21T05:26:57.595Z,8.11
2022-11-21T05:29:28.122Z,8.16
2022-11-21T05:31:54.294Z,8.21
2022-11-21T05:34:22.572Z,8.22
2022-11-21T05:36:53.605Z,8.24
2022-11-21T05:39:21.378Z,8.25
2022-11-21T05:41:48.997Z,8.24
2022-11-21T05:44:16.919Z,8.22
2022-11-21T05:46:45.414Z,8.18
2022-11-21T05:49:13.417Z,8.06
2022-11-21T05:51:41.087Z,8.00
2022-11-21T05:54:14.280Z,7.93
2022-11-21T05:56:41.900Z,7.87
2022-11-21T05:59:12.912Z,7.82
2022-11-21T06:01:59.047Z,7.70
2022-11-21T06:04:27.042Z,7.66
2022-11-21T06:06:54.638Z,7.57
2022-11-21T06:09:22.204Z,7.47
2022-11-21T06:11:49.511Z,7.40
2022-11-21T06:14:17.350Z,7.33
2022-11-21T06:16:44.856Z,7.29
2022-11-21T06:19:12.201Z,7.26
2022-11-21T06:21:40.391Z,7.29
2022-11-21T06:24:08.605Z,7.29
2022-11-21T06:26:36.286Z,7.29
2022-11-21T06:29:03.967Z,7.25
2022-11-21T06:31:31.669Z,7.24
2022-11-21T06:33:59.860Z,7.16
2022-11-21T06:36:27.931Z,7.05
2022-11-21T06:38:56.217Z,7.00
2022-11-21T06:41:26.562Z,6.91
2022-11-21T06:43:54.256Z,6.86
2022-11-21T06:46:21.560Z,6.83
2022-11-21T06:48:49.158Z,6.80
2022-11-21T06:51:22.922Z,6.69
2022-11-21T06:53:58.481Z,6.59
2022-11-21T06:56:29.033Z,6.48
2022-11-21T06:58:57.013Z,6.44
2022-11-21T07:01:24.959Z,6.40
2022-11-21T07:03:53.690Z,6.40
2022-11-21T07:06:22.397Z,6.39
2022-11-21T07:09:17.656Z,6.37
2022-11-21T07:11:24.921Z,6.42
2022-11-21T07:13:53.117Z,6.51
2022-11-21T07:16:20.816Z,6.60
2022-11-21T07:18:48.198Z,6.70
2022-11-21T07:21:15.653Z,6.79
2022-11-21T07:23:43.187Z,6.83
2022-11-21T07:26:11.102Z,6.85
2022-11-21T07:28:39.015Z,6.87
2022-11-21T07:31:12.938Z,6.89
2022-11-21T07:33:36.927Z,6.82
2022-11-21T07:36:05.538Z,6.81
2022-11-21T07:38:33.019Z,6.79
2022-11-21T07:41:00.481Z,6.77
2022-11-21T07:43:27.992Z,6.74
2022-11-21T07:45:56.378Z,6.71
2022-11-21T07:48:24.002Z,6.72
2022-11-21T07:50:51.562Z,6.72
2022-11-21T07:53:19.187Z,6.73
2022-11-21T07:55:46.625Z,6.77
2022-11-21T07:58:16.635Z,6.81
2022-11-21T08:00:44.298Z,6.83
2022-11-21T08:03:13.403Z,6.85
2022-11-21T08:05:43.517Z,6.88
2022-11-21T08:08:12.859Z,6.89
2022-11-21T08:10:45.537Z,6.86
2022-11-21T08:13:13.909Z,6.89
2022-11-21T08:15:41.578Z,6.87
2022-11-21T08:18:12.870Z,6.89
2022-11-21T08:20:40.236Z,6.93
2022-11-21T08:23:09.511Z,6.98
2022-11-21T08:25:39.473Z,7.03
2022-11-21T08:28:10.657Z,7.08
2022-11-21T08:30:39.754Z,7.12
2022-11-21T08:33:07.449Z,7.24
2022-11-21T08:35:39.682Z,7.39
2022-11-21T08:38:07.859Z,7.55
2022-11-21T08:40:36.185Z,7.69
2022-11-21T08:43:07.306Z,7.76
2022-11-21T08:45:37.021Z,7.80
2022-11-21T08:48:10.996Z,7.87
2022-11-21T08:50:38.971Z,7.93
2022-11-21T08:53:06.522Z,8.00
2022-11-21T08:55:33.972Z,8.03
2022-11-21T08:58:01.563Z,8.03
2022-11-21T09:00:29.445Z,8.05
2022-11-21T09:02:56.955Z,8.05
2022-11-21T09:05:24.487Z,8.07
2022-11-21T09:07:58.601Z,8.06
2022-11-21T09:10:27.070Z,8.04
2022-11-21T09:13:00.251Z,8.05
2022-11-21T09:15:46.251Z,8.05
2022-11-21T09:18:14.152Z,8.06
2022-11-21T09:20:44.283Z,8.02
2022-11-21T09:23:15.056Z,8.00
2022-11-21T09:25:43.867Z,7.97
2022-11-21T09:28:13.068Z,7.97
2022-11-21T09:30:42.212Z,7.94
2022-11-21T09:33:16.356Z,7.95
2022-11-21T09:35:44.827Z,7.98
2022-11-21T09:38:12.470Z,8.01
2022-11-21T09:40:44.543Z,8.04
2022-11-21T09:43:43.463Z,8.08
2022-11-21T09:46:17.202Z,8.11
2022-11-21T09:49:04.917Z,8.19
2022-11-21T09:51:34.573Z,8.27
2022-11-21T09:54:07.498Z,8.31
2022-11-21T09:56:39.406Z,8.36
2022-11-21T09:59:36.578Z,8.38
2022-11-21T10:02:17.276Z,8.38
2022-11-21T10:04:47.374Z,8.37
2022-11-21T10:07:29.174Z,8.36
2022-11-21T10:10:24.927Z,8.37
2022-11-21T10:13:44.170Z,8.39
2022-11-21T10:16:20.042Z,8.42
2022-11-21T10:18:59.352Z,8.42
2022-11-21T10:21:46.895Z,8.44
2022-11-21T10:24:40.277Z,8.44
2022-11-21T10:27:19.251Z,8.42
2022-11-21T10:29:57.947Z,8.44
2022-11-21T10:32:30.723Z,8.40
2022-11-21T10:35:03.523Z,8.40
2022-11-21T10:37:38.959Z,8.39
2022-11-21T10:40:18.255Z,8.35
2022-11-21T10:43:32.662Z,8.26
2022-11-21T10:46:00.147Z,8.21
2022-11-21T10:48:27.555Z,8.14
2022-11-21T10:51:34.345Z,8.11
2022-11-21T10:54:30.373Z,8.08
2022-11-21T10:57:19.426Z,8.08
2022-11-21T11:00:01.429Z,8.08
2022-11-21T11:02:29.263Z,8.10
2022-11-21T11:05:24.434Z,8.11
2022-11-21T11:08:14.205Z,8.13
2022-11-21T11:10:49.846Z,8.19
2022-11-21T11:13:46.414Z,8.19
2022-11-21T11:16:15.791Z,8.14
2022-11-21T11:18:56.540Z,8.11
2022-11-21T11:21:30.230Z,8.01
2022-11-21T11:24:08.697Z,7.88
2022-11-21T11:26:50.743Z,7.82
2022-11-21T11:29:22.913Z,7.81
2022-11-21T11:32:21.664Z,7.79
2022-11-21T11:35:00.501Z,7.78
2022-11-21T11:37:43.682Z,7.65
2022-11-21T11:40:26.286Z,7.54
2022-11-21T11:43:34.494Z,7.40
2022-11-21T11:46:53.120Z,7.19
2022-11-21T11:50:03.520Z,7.03
2022-11-21T11:52:48.283Z,6.86
2022-11-21T11:55:27.736Z,6.72
2022-11-21T11:57:59.306Z,6.58
2022-11-21T12:00:44.774Z,6.57
2022-11-21T12:03:23.607Z,6.44
2022-11-21T12:06:08.680Z,6.36
2022-11-21T12:08:53.928Z,6.31
2022-11-21T12:12:06.602Z,6.29
2022-11-21T12:15:14.881Z,6.24
2022-11-21T12:18:08.917Z,6.15
2022-11-21T12:20:41.831Z,6.15
2022-11-21T12:23:11.053Z,6.07
2022-11-21T12:26:04.906Z,5.95
2022-11-21T12:29:01.401Z,5.89
2022-11-21T12:32:17.189Z,5.89
2022-11-21T12:35:13.429Z,5.79
2022-11-21T12:37:58.786Z,5.76
2022-11-21T12:40:49.806Z,5.71
2022-11-21T12:43:25.682Z,5.72
2022-11-21T12:46:21.607Z,5.70
2022-11-21T12:49:21.900Z,5.67
2022-11-21T12:52:25.396Z,5.68
2022-11-21T12:55:19.602Z,5.65
2022-11-21T12:58:25.155Z,5.64
2022-11-21T13:01:21.160Z,5.67
2022-11-21T13:04:03.158Z,5.67
2022-11-21T13:06:39.100Z,5.59
2022-11-21T13:09:14.425Z,5.54
2022-11-21T13:12:04.018Z,5.50
2022-11-21T13:14:57.352Z,5.45
2022-11-21T13:17:36.247Z,5.44
2022-11-21T13:20:22.198Z,5.42
2022-11-21T13:22:53.425Z,5.43
2022-11-21T13:25:37.551Z,5.45
2022-11-21T13:28:22.544Z,5.47
2022-11-21T13:30:55.211Z,5.41
2022-11-21T13:33:42.475Z,5.40
2022-11-21T13:36:34.425Z,5.34
2022-11-21T13:39:07.482Z,5.28
2022-11-21T13:42:07.802Z,5.25
2022-11-21T13:44:41.595Z,5.27
2022-11-21T13:47:27.428Z,5.32
2022-11-21T13:50:17.176Z,5.34
2022-11-21T13:53:07.988Z,5.34
2022-11-21T13:56:19.358Z,5.31
2022-11-21T13:59:30.448Z,5.27
2022-11-21T14:02:09.058Z,5.20
2022-11-21T14:04:57.467Z,5.09
2022-11-21T14:07:31.336Z,5.05
2022-11-21T14:10:21.297Z,5.03
2022-11-21T14:12:50.510Z,5.10
2022-11-21T14:15:32.390Z,5.12
2022-11-21T14:18:01.733Z,5.15
2022-11-21T14:20:53.384Z,5.14
2022-11-21T14:23:23.464Z,5.16
2022-11-21T14:26:18.942Z,5.17
2022-11-21T14:28:47.685Z,5.14
2022-11-21T14:31:15.779Z,5.13
2022-11-21T14:33:47.297Z,5.10
2022-11-21T14:36:27.086Z,5.08
2022-11-21T14:39:34.559Z,5.09
2022-11-21T14:41:33.709Z,5.14
2022-11-21T14:44:09.735Z,5.20
2022-11-21T14:46:40.034Z,5.25
2022-11-21T14:49:20.988Z,5.33
2022-11-21T14:51:53.557Z,5.41
2022-11-21T14:54:25.601Z,5.48
2022-11-21T14:57:00.364Z,5.54
2022-11-21T14:59:40.372Z,5.59
2022-11-21T15:02:21.721Z,5.64
2022-11-21T15:04:52.760Z,5.69
2022-11-21T15:07:31.810Z,5.74
2022-11-21T15:12:32.278Z,5.77
2022-11-21T15:15:08.285Z,5.83
2022-11-21T15:17:41.401Z,5.87
2022-11-21T15:20:16.401Z,5.93
2022-11-21T15:22:46.278Z,5.97
2022-11-21T15:25:24.933Z,5.99
2022-11-21T15:28:03.451Z,6.01
2022-11-21T15:30:33.268Z,6.00
2022-11-21T15:33:11.989Z,5.99
2022-11-21T15:35:55.843Z,5.94
2022-11-21T15:38:32.461Z,5.92
2022-11-21T15:41:11.392Z,5.95
2022-11-21T15:43:50.984Z,6.02
2022-11-21T15:46:32.217Z,6.11
2022-11-21T15:49:25.106Z,6.21
2022-11-21T15:52:06.101Z,6.25
2022-11-21T15:54:20.562Z,6.34
2022-11-21T15:56:49.048Z,6.43
2022-11-21T15:59:17.124Z,6.53
2022-11-21T16:01:45.119Z,6.56
2022-11-21T16:04:12.915Z,6.50
2022-11-21T16:06:40.510Z,6.42
2022-11-21T16:09:07.999Z,6.32
2022-11-21T16:11:37.336Z,6.26
2022-11-21T16:14:06.768Z,6.19
2022-11-21T16:16:43.125Z,6.18
2022-11-21T16:19:13.108Z,6.17
2022-11-21T16:21:41.370Z,6.03
2022-11-21T16:24:09.116Z,5.90
2022-11-21T16:26:36.783Z,5.69
2022-11-21T16:29:06.203Z,5.65
2022-11-21T16:31:34.457Z,5.61
2022-11-21T16:34:02.358Z,5.55
2022-11-21T16:36:32.012Z,5.53
2022-11-21T16:39:08.717Z,5.46
2022-11-21T16:41:31.400Z,5.41
2022-11-21T16:43:58.928Z,5.39
2022-11-21T16:46:26.764Z,5.33
2022-11-21T16:49:00.456Z,5.31
2022-11-21T16:51:28.252Z,5.31
2022-11-21T16:53:57.540Z,5.28
2022-11-21T16:56:26.088Z,5.26
2022-11-21T16:58:53.518Z,5.26
2022-11-21T17:01:26.656Z,5.28
2022-11-21T17:03:54.411Z,5.30
2022-11-21T17:06:27.117Z,5.31
2022-11-21T17:08:55.265Z,5.31
2022-11-21T17:11:28.671Z,5.33
2022-11-21T17:13:59.816Z,5.38
2022-11-21T17:16:28.311Z,5.43
2022-11-21T17:18:59.767Z,5.46
2022-11-21T17:21:28.902Z,5.52
2022-11-21T17:23:57.138Z,5.59
2022-11-21T17:26:29.457Z,5.62
2022-11-21T17:29:00.385Z,5.68
2022-11-21T17:31:28.318Z,5.70
2022-11-21T17:33:58.249Z,5.64
2022-11-21T17:36:28.999Z,5.62
2022-11-21T17:38:56.943Z,5.59
2022-11-21T17:41:25.324Z,5.58
2022-11-21T17:43:57.775Z,5.51
2022-11-21T17:46:26.193Z,5.47
2022-11-21T17:48:58.364Z,5.44
2022-11-21T17:51:30.076Z,5.42
2022-11-21T17:53:58.920Z,5.39
2022-11-21T17:56:29.737Z,5.39
2022-11-21T17:58:58.259Z,5.40
2022-11-21T18:01:26.506Z,5.43
2022-11-21T18:04:08.971Z,5.48
2022-11-21T18:06:38.114Z,5.55
2022-11-21T18:09:09.481Z,5.62
2022-11-21T18:11:39.881Z,5.65
2022-11-21T18:14:10.210Z,5.74
2022-11-21T18:16:38.946Z,5.77
2022-11-21T18:19:08.004Z,5.82
2022-11-21T18:21:35.905Z,5.87
2022-11-21T18:24:03.591Z,5.90
2022-11-21T18:26:37.281Z,5.91
2022-11-21T18:31:37.881Z,5.92
2022-11-21T18:34:06.300Z,5.92
2022-11-21T18:36:34.018Z,5.90
2022-11-21T18:39:08.926Z,5.86
2022-11-21T18:41:33.647Z,5.80
2022-11-21T18:44:04.021Z,5.72
2022-11-21T18:46:34.335Z,5.65
2022-11-21T18:49:05.887Z,5.58
2022-11-21T18:51:32.157Z,5.48
2022-11-21T18:54:04.625Z,5.42
2022-11-21T18:56:32.662Z,5.34
2022-11-21T18:59:00.545Z,5.29
2022-11-21T19:01:29.582Z,5.20
2022-11-21T19:03:57.332Z,5.12
2022-11-21T19:06:26.435Z,5.03
2022-11-21T19:08:56.579Z,4.96
2022-11-21T19:11:28.131Z,4.92
2022-11-21T19:13:57.778Z,4.87
2022-11-21T19:16:27.640Z,4.83
2022-11-21T19:21:24.860Z,4.76
2022-11-21T19:23:52.511Z,4.73
2022-11-21T19:26:21.186Z,4.72
2022-11-21T19:28:49.058Z,4.74
2022-11-21T19:31:18.452Z,4.78
2022-11-21T19:33:46.933Z,4.83
2022-11-21T19:36:20.927Z,4.90
2022-11-21T19:38:51.148Z,4.94
2022-11-21T19:41:27.259Z,5.00
2022-11-21T19:43:58.843Z,5.03
2022-11-21T19:46:33.656Z,5.07
2022-11-21T19:49:02.048Z,5.08
2022-11-21T19:51:36.605Z,5.03
2022-11-21T19:54:06.027Z,5.04
2022-11-21T19:56:34.432Z,5.00
2022-11-21T19:59:03.013Z,5.00
2022-11-21T20:01:33.666Z,4.95
2022-11-21T20:04:04.257Z,4.86
2022-11-21T20:06:38.269Z,4.79
2022-11-21T20:09:10.559Z,4.74
2022-11-21T20:11:44.727Z,4.69
2022-11-21T20:14:19.604Z,4.66
2022-11-21T20:16:45.770Z,4.58
2022-11-21T20:19:16.208Z,4.56
2022-11-21T20:21:45.458Z,4.50
2022-11-21T20:24:13.700Z,4.44
2022-11-21T20:26:41.998Z,4.40
2022-11-21T20:29:12.657Z,4.37
2022-11-21T20:31:40.872Z,4.36
2022-11-21T20:34:14.996Z,4.33
2022-11-21T20:36:43.656Z,4.33
2022-11-21T20:39:17.099Z,4.34
2022-11-21T20:41:46.053Z,4.32
2022-11-21T20:45:25.451Z,4.28
2022-11-21T20:46:50.212Z,4.23
2022-11-21T20:49:17.766Z,4.18
2022-11-21T20:54:14.591Z,4.11
2022-11-21T20:56:44.342Z,4.05
2022-11-21T20:59:12.528Z,3.98
2022-11-21T21:01:40.166Z,3.92
2022-11-21T21:04:08.930Z,3.88
2022-11-21T21:06:37.124Z,3.87
2022-11-21T21:09:05.057Z,3.85
2022-11-21T21:14:01.961Z,3.93
2022-11-21T21:16:31.634Z,3.98
2022-11-21T21:18:59.402Z,4.03
2022-11-21T21:21:30.242Z,4.08
2022-11-21T21:24:01.865Z,4.10
2022-11-21T21:26:38.746Z,4.15
2022-11-21T21:29:04.562Z,4.22
2022-11-21T21:31:31.913Z,4.28
2022-11-21T21:34:00.360Z,4.35
2022-11-21T21:36:29.660Z,4.39
2022-11-21T21:38:59.565Z,4.44
2022-11-21T21:41:30.447Z,4.48
2022-11-21T21:43:58.248Z,4.53
2022-11-21T21:46:27.542Z,4.56
2022-11-21T21:48:57.610Z,4.56
2022-11-21T21:51:28.283Z,4.57
2022-11-21T21:53:58.363Z,4.55
2022-11-21T21:56:28.362Z,4.53
2022-11-21T21:58:57.604Z,4.48
2022-11-21T22:01:30.924Z,4.44
2022-11-21T22:04:01.722Z,4.42
2022-11-21T22:06:30.936Z,4.37
2022-11-21T22:08:58.609Z,4.33
2022-11-21T22:11:29.759Z,4.33
2022-11-21T22:14:06.933Z,4.30
2022-11-21T22:16:34.484Z,4.24
2022-11-21T22:19:02.036Z,4.23
2022-11-21T22:21:33.577Z,4.21
2022-11-21T22:26:35.722Z,4.20
2022-11-21T22:29:03.729Z,4.19
2022-11-21T22:31:33.044Z,4.17
2022-11-21T22:34:01.387Z,4.16
2022-11-21T22:36:29.340Z,4.12
2022-11-21T22:38:57.196Z,4.08
2022-11-21T22:41:26.804Z,4.06
2022-11-21T22:43:59.680Z,4.06
2022-11-21T22:46:29.235Z,4.09
2022-11-21T22:48:57.073Z,4.14
2022-11-21T22:51:30.212Z,4.23
2022-11-21T22:53:57.823Z,4.31
2022-11-21T22:56:26.597Z,4.38
2022-11-21T22:58:55.635Z,4.43
2022-11-21T23:01:25.708Z,4.48
2022-11-21T23:03:55.117Z,4.51
2022-11-21T23:06:25.643Z,4.55
2022-11-21T23:08:55.530Z,4.58
2022-11-21T23:11:27.103Z,4.62
2022-11-21T23:13:55.938Z,4.63
2022-11-21T23:16:24.859Z,4.61
2022-11-21T23:18:54.233Z,4.62
2022-11-21T23:21:22.749Z,4.60
2022-11-21T23:23:50.419Z,4.58
2022-11-21T23:26:18.054Z,4.58
2022-11-21T23:28:45.692Z,4.56
2022-11-21T23:31:13.586Z,4.55
2022-11-21T23:33:40.969Z,4.54
2022-11-21T23:36:08.440Z,4.52
2022-11-21T23:38:36.058Z,4.51
2022-11-21T23:41:03.751Z,4.51
2022-11-21T23:43:31.335Z,4.46
2022-11-21T23:45:59.010Z,4.44
2022-11-21T23:48:27.715Z,4.46
2022-11-21T23:50:55.376Z,4.43
2022-11-21T23:53:22.981Z,4.43
2022-11-21T23:55:50.585Z,4.41
2022-11-21T23:58:18.245Z,4.39
